Time;durP1;ratioP1;P1;durP2;ratioP2;P2;SDS_P1;SDS_P2;PMS_P1;PMS_P2;Temp;Humidity;BMP_temperature;BMP_pressure;BME280_temperature;BME280_humidity;BME280_pressure;Samples;Min_cycle;Max_cycle;Signal;HPM_P1;HPM_P2
2024/02/01 00:01:36;;;;;;;5.23;4.73;;;25.00;1.00;;;;;;2612836;39;20674;-64
2024/02/01 00:04:02;;;;;;;5.13;4.60;;;25.00;1.00;;;;;;2612224;54;20185;-65
2024/02/01 00:06:27;;;;;;;5.30;4.80;;;24.90;1.00;;;;;;2611439;54;20458;-63
2024/02/01 06:51:25;;;;;;;3.40;2.10;;;23.60;1.00;;;;;;2609194;54;20373;-63
2024/02/01 06:54:05;;;;;;;4.90;2.20;;;23.60;1.00;;;;;;2611885;47;20435;-63
2024/02/01 06:56:51;;;;;;;8.60;2.37;;;23.70;1.00;;;;;;2612844;54;20404;-66
2024/02/01 06:59:31;;;;;;;8.80;3.17;;;23.90;1.00;;;;;;2612709;54;20523;-62
2024/02/01 07:02:11;;;;;;;4.07;2.20;;;24.10;1.00;;;;;;2610783;54;20460;-61
2024/02/01 07:04:50;;;;;;;3.07;2.67;;;24.30;1.00;;;;;;2611409;47;20411;-62
2024/02/01 07:07:26;;;;;;;5.27;2.10;;;24.40;1.00;;;;;;2611120;54;20437;-63
2024/02/01 07:10:08;;;;;;;10.27;2.47;;;24.20;1.00;;;;;;2611806;54;20425;-65
2024/02/01 07:12:42;;;;;;;4.90;2.03;;;24.10;1.00;;;;;;2612790;54;20516;-65
2024/02/01 07:15:19;;;;;;;8.47;3.87;;;24.00;1.00;;;;;;2609935;39;21587;-64
2024/02/01 07:17:46;;;;;;;4.00;2.20;;;24.00;1.00;;;;;;2610926;54;20487;-63
2024/02/01 07:20:23;;;;;;;3.67;2.40;;;23.90;1.00;;;;;;2609510;54;20475;-62
2024/02/01 07:23:00;;;;;;;6.57;2.77;;;23.80;1.00;;;;;;2609087;54;21100;-63
2024/02/01 07:25:46;;;;;;;5.70;2.63;;;23.70;1.00;;;;;;2609248;54;20969;-62
2024/02/01 07:58:29;;;;;;;5.17;2.80;;;23.30;1.00;;;;;;2609079;54;20396;-51
2024/02/01 08:00:56;;;;;;;3.10;2.30;;;23.30;1.00;;;;;;2610290;39;21171;-50
2024/02/01 08:08:37;;;;;;;2.57;2.00;;;23.30;1.00;;;;;;2611059;54;21079;-51
2024/02/01 08:11:03;;;;;;;7.30;2.40;;;23.30;1.00;;;;;;2609889;46;20443;-52
2024/02/01 08:13:30;;;;;;;4.07;2.00;;;23.30;1.00;;;;;;2612219;54;20163;-52
2024/02/01 08:15:57;;;;;;;2.77;1.73;;;23.30;1.00;;;;;;2611964;54;20805;-51
2024/02/01 08:18:24;;;;;;;5.97;2.50;;;23.30;1.00;;;;;;2611976;39;20925;-52
2024/02/01 08:20:49;;;;;;;2.80;2.03;;;23.30;1.00;;;;;;2613253;54;20517;-54
2024/02/01 08:23:24;;;;;;;2.07;1.80;;;23.30;1.00;;;;;;2608803;54;20417;-50
2024/02/01 08:25:51;;;;;;;2.90;2.10;;;23.30;1.00;;;;;;2611702;54;20177;-59
2024/02/01 08:28:18;;;;;;;2.63;1.80;;;23.30;1.00;;;;;;2610113;54;20409;-59
2024/02/01 08:30:45;;;;;;;8.60;2.47;;;23.30;1.00;;;;;;2611052;47;20453;-59
2024/02/01 08:33:19;;;;;;;2.53;2.13;;;23.30;1.00;;;;;;2610898;54;20391;-59
2024/02/01 08:35:46;;;;;;;3.10;2.00;;;23.30;1.00;;;;;;2610774;54;21179;-59
2024/02/01 08:38:12;;;;;;;3.20;2.60;;;23.30;1.00;;;;;;2610847;54;20403;-58
2024/02/01 08:40:41;;;;;;;8.07;2.70;;;23.50;1.00;;;;;;2611502;54;20532;-57
2024/02/01 08:43:09;;;;;;;3.00;2.00;;;23.70;1.00;;;;;;2610911;54;20478;-59
2024/02/01 08:45:38;;;;;;;6.43;3.13;;;23.90;1.00;;;;;;2610880;54;21041;-63
2024/02/01 08:48:05;;;;;;;4.53;2.03;;;24.00;1.00;;;;;;2610496;54;21030;-63
2024/02/01 08:50:49;;;;;;;5.80;2.20;;;24.00;1.00;;;;;;2611342;54;20965;-64
2024/02/01 08:53:17;;;;;;;3.60;2.27;;;24.00;1.00;;;;;;2611293;54;20408;-63
2024/02/01 08:55:45;;;;;;;6.07;1.93;;;24.10;1.00;;;;;;2612046;54;20420;-57
2024/02/01 08:58:11;;;;;;;3.93;2.30;;;24.30;1.00;;;;;;2611200;54;20409;-58
2024/02/01 09:00:42;;;;;;;5.13;2.20;;;24.30;1.00;;;;;;2610254;54;21207;-57
2024/02/01 09:03:16;;;;;;;8.23;3.63;;;24.90;1.00;;;;;;2611198;39;20836;-58
2024/02/01 09:05:49;;;;;;;8.87;4.53;;;24.70;1.00;;;;;;2611016;47;20434;-59
2024/02/01 09:08:34;;;;;;;7.00;3.63;;;22.90;1.00;;;;;;2610111;54;20433;-58
2024/02/01 09:11:01;;;;;;;5.87;2.90;;;22.70;1.00;;;;;;2610740;54;20984;-58
2024/02/01 09:13:30;;;;;;;5.40;3.10;;;22.80;1.00;;;;;;2609741;51;20423;-59
2024/02/01 09:15:58;;;;;;;5.50;3.23;;;22.90;1.00;;;;;;2611192;54;20479;-59
2024/02/01 09:18:24;;;;;;;8.73;4.40;;;22.90;1.00;;;;;;2611348;54;20430;-59
2024/02/01 09:20:51;;;;;;;6.20;3.53;;;22.20;1.00;;;;;;2611440;47;20435;-58
2024/02/01 09:23:16;;;;;;;8.73;4.50;;;22.20;1.00;;;;;;2610074;54;20215;-58
2024/02/01 09:25:42;;;;;;;6.70;4.53;;;22.50;1.00;;;;;;2610254;39;20838;-58
2024/02/01 09:28:12;;;;;;;6.70;3.60;;;22.80;1.00;;;;;;2611139;54;20160;-58
2024/02/01 09:30:45;;;;;;;8.23;3.80;;;23.10;1.00;;;;;;2611174;54;20419;-58
2024/02/01 09:33:22;;;;;;;9.77;4.07;;;23.40;1.00;;;;;;2610483;47;20424;-59
2024/02/01 09:35:48;;;;;;;7.17;3.17;;;23.80;1.00;;;;;;2610896;54;20435;-63
2024/02/01 09:38:14;;;;;;;7.17;3.90;;;24.00;1.00;;;;;;2611386;47;20471;-63
2024/02/01 09:40:43;;;;;;;8.00;3.50;;;25.10;1.00;;;;;;2611312;54;20189;-64
2024/02/01 09:43:23;;;;;;;8.73;3.80;;;26.00;1.00;;;;;;2611237;47;20419;-63
2024/02/01 09:45:55;;;;;;;6.50;3.20;;;26.50;1.00;;;;;;2611491;47;20423;-62
2024/02/01 09:48:21;;;;;;;6.27;2.90;;;27.40;1.00;;;;;;2610009;54;20470;-62
2024/02/01 09:50:52;;;;;;;14.60;3.67;;;28.30;1.00;;;;;;2610861;39;21177;-63
2024/02/01 09:53:21;;;;;;;4.50;3.17;;;29.00;1.00;;;;;;2611529;54;20994;-63
2024/02/01 09:55:48;;;;;;;4.93;3.10;;;29.70;1.00;;;;;;2611624;54;20453;-63
2024/02/01 09:58:13;;;;;;;6.63;3.33;;;30.10;1.00;;;;;;2610476;47;20437;-63
2024/02/01 10:00:39;;;;;;;7.63;3.13;;;30.30;1.00;;;;;;2611614;39;20780;-63
2024/02/01 10:03:05;;;;;;;7.63;3.77;;;30.40;1.00;;;;;;2610762;54;20181;-62
2024/02/01 10:05:32;;;;;;;5.23;2.73;;;30.60;1.00;;;;;;2611903;54;20391;-63
2024/02/01 10:07:59;;;;;;;8.30;3.77;;;30.20;1.00;;;;;;2610740;54;20177;-63
2024/02/01 10:10:25;;;;;;;6.67;3.40;;;28.80;1.00;;;;;;2611091;54;20426;-62
2024/02/01 10:12:58;;;;;;;5.70;3.00;;;27.70;1.00;;;;;;2609037;54;20512;-62
2024/02/01 10:15:30;;;;;;;9.60;3.70;;;26.90;1.00;;;;;;2609767;54;20171;-63
2024/02/01 10:17:58;;;;;;;6.40;3.30;;;26.50;1.00;;;;;;2610943;54;20475;-62
2024/02/01 10:21:21;;;;;;;6.20;3.30;;;26.20;1.00;;;;;;2611068;47;20434;-62
2024/02/01 10:23:22;;;;;;;6.73;3.17;;;27.50;1.00;;;;;;2609947;54;20432;-63
2024/02/01 10:25:53;;;;;;;4.93;2.50;;;29.10;1.00;;;;;;2608188;54;20409;-64
2024/02/01 10:28:34;;;;;;;6.30;3.27;;;29.50;1.00;;;;;;2607159;39;21727;-63
2024/02/01 10:31:00;;;;;;;6.03;3.53;;;29.00;1.00;;;;;;2607984;39;26420;-64
2024/02/01 10:33:30;;;;;;;10.07;3.17;;;28.80;1.00;;;;;;2608743;54;20451;-63
2024/02/01 10:35:58;;;;;;;7.70;3.37;;;29.60;1.00;;;;;;2611607;39;20818;-63
2024/02/01 10:38:26;;;;;;;5.93;2.90;;;28.70;1.00;;;;;;2611485;54;20585;-62
2024/02/01 10:41:11;;;;;;;6.17;3.60;;;28.30;1.00;;;;;;2611840;54;20413;-63
2024/02/01 10:43:41;;;;;;;4.43;2.80;;;28.40;1.00;;;;;;2611319;54;20437;-63
2024/02/01 10:46:08;;;;;;;4.90;2.80;;;27.60;1.00;;;;;;2611340;47;20442;-58
2024/02/01 10:48:42;;;;;;;5.13;2.83;;;27.40;1.00;;;;;;2609615;54;20405;-58
2024/02/01 10:51:11;;;;;;;7.97;3.53;;;28.20;1.00;;;;;;2610458;47;20485;-58
2024/02/01 10:53:40;;;;;;;3.73;2.97;;;27.80;1.00;;;;;;2609080;54;20428;-58
2024/02/01 10:56:13;;;;;;;6.47;2.67;;;27.40;1.00;;;;;;2607702;54;20423;-58
2024/02/01 10:58:47;;;;;;;5.60;2.63;;;27.90;1.00;;;;;;2607738;54;20429;-58
2024/02/01 11:01:17;;;;;;;3.43;2.80;;;29.00;1.00;;;;;;2607340;54;20411;-58
2024/02/01 11:03:56;;;;;;;3.80;2.70;;;30.20;1.00;;;;;;2607999;54;20451;-58
2024/02/01 11:06:25;;;;;;;3.90;2.23;;;30.10;1.00;;;;;;2608329;54;20466;-59
2024/02/01 11:08:53;;;;;;;3.40;2.83;;;28.80;1.00;;;;;;2608351;54;20433;-59
2024/02/01 11:11:22;;;;;;;4.20;3.20;;;28.20;1.00;;;;;;2608643;54;20414;-59
2024/02/01 11:14:06;;;;;;;3.80;2.70;;;27.20;1.00;;;;;;2607834;54;20975;-59
2024/02/01 11:16:42;;;;;;;4.93;2.40;;;26.70;1.00;;;;;;2608268;47;21928;-61
2024/02/01 11:19:32;;;;;;;4.67;3.40;;;26.30;1.00;;;;;;2608270;39;20647;-62
2024/02/01 11:22:03;;;;;;;3.90;2.50;;;25.90;1.00;;;;;;2607673;54;21038;-61
2024/02/01 11:24:34;;;;;;;2.83;2.20;;;25.70;1.00;;;;;;2608308;54;20388;-61
2024/02/01 11:27:12;;;;;;;3.40;2.37;;;25.60;1.00;;;;;;2607959;54;20404;-60
2024/02/01 11:29:39;;;;;;;7.90;3.43;;;25.50;1.00;;;;;;2608409;39;20511;-61
2024/02/01 11:32:05;;;;;;;4.60;2.80;;;25.50;1.00;;;;;;2608358;54;20396;-60
2024/02/01 11:34:33;;;;;;;3.97;3.00;;;25.40;1.00;;;;;;2609180;39;20780;-62
2024/02/01 11:37:05;;;;;;;4.77;2.60;;;25.40;1.00;;;;;;2610427;39;21020;-60
2024/02/01 11:39:31;;;;;;;5.87;3.00;;;25.40;1.00;;;;;;2608535;39;20724;-61
2024/02/01 11:41:57;;;;;;;5.00;2.70;;;25.40;1.00;;;;;;2609254;54;20446;-60
2024/02/01 11:44:23;;;;;;;3.97;3.17;;;25.40;1.00;;;;;;2610844;47;20170;-61
2024/02/01 11:46:53;;;;;;;2.90;2.60;;;25.40;1.00;;;;;;2607912;54;20189;-61
2024/02/01 11:49:27;;;;;;;5.50;2.90;;;25.40;1.00;;;;;;2607893;54;20411;-61
2024/02/01 11:52:15;;;;;;;5.30;3.00;;;25.40;1.00;;;;;;2608037;51;20423;-61
2024/02/01 11:54:48;;;;;;;4.97;2.90;;;25.40;1.00;;;;;;2610525;54;20465;-61
2024/02/01 11:57:18;;;;;;;6.30;2.57;;;25.40;1.00;;;;;;2609348;54;20399;-59
2024/02/01 11:59:45;;;;;;;4.73;3.27;;;25.40;1.00;;;;;;2607741;39;20785;-58
2024/02/01 12:02:10;;;;;;;5.30;3.20;;;25.30;1.00;;;;;;2606177;54;20532;-58
2024/02/01 12:04:37;;;;;;;3.30;2.10;;;25.40;1.00;;;;;;2608000;39;20749;-58
2024/02/01 12:07:05;;;;;;;4.57;2.70;;;25.40;1.00;;;;;;2607698;54;20968;-58
2024/02/01 12:09:35;;;;;;;5.87;2.37;;;25.40;1.00;;;;;;2607900;47;20448;-58
2024/02/01 12:12:05;;;;;;;4.13;2.30;;;25.40;1.00;;;;;;2608092;54;20414;-58
2024/02/01 12:14:32;;;;;;;4.60;3.20;;;25.40;1.00;;;;;;2609141;54;20394;-58
2024/02/01 12:17:01;;;;;;;5.13;2.70;;;25.40;1.00;;;;;;2608409;54;20505;-62
2024/02/01 12:19:31;;;;;;;3.50;2.40;;;25.40;1.00;;;;;;2608349;54;20391;-63
2024/02/01 12:21:57;;;;;;;3.47;2.60;;;25.40;1.00;;;;;;2607783;54;20434;-62
2024/02/01 12:24:32;;;;;;;7.60;3.27;;;25.40;1.00;;;;;;2608657;54;20432;-62
2024/02/01 12:26:58;;;;;;;3.73;2.70;;;25.40;1.00;;;;;;2607246;54;20173;-61
2024/02/01 12:29:26;;;;;;;3.10;2.20;;;25.40;1.00;;;;;;2612295;39;20773;-61
2024/02/01 12:31:52;;;;;;;3.70;2.50;;;25.30;1.00;;;;;;2608395;54;20268;-61
2024/02/01 12:34:19;;;;;;;6.20;2.67;;;25.30;1.00;;;;;;2608416;39;20985;-61
2024/02/01 12:36:47;;;;;;;4.73;2.50;;;25.20;1.00;;;;;;2607718;54;20825;-61
2024/02/01 12:39:13;;;;;;;4.53;2.70;;;25.20;1.00;;;;;;2608067;54;20435;-61
2024/02/01 12:41:39;;;;;;;3.10;2.30;;;25.10;1.00;;;;;;2608840;50;20448;-62
2024/02/01 12:44:09;;;;;;;6.07;2.63;;;25.10;1.00;;;;;;2608286;54;21140;-61
2024/02/01 12:46:36;;;;;;;4.77;3.10;;;25.20;1.00;;;;;;2607910;39;20606;-61
2024/02/01 12:49:02;;;;;;;3.50;2.13;;;25.40;1.00;;;;;;2608265;39;20813;-61
2024/02/01 12:51:29;;;;;;;2.93;2.60;;;25.60;1.00;;;;;;2607703;54;20403;-61
2024/02/01 12:54:00;;;;;;;6.50;2.60;;;25.70;1.00;;;;;;2610043;54;20840;-61
2024/02/01 12:56:26;;;;;;;3.20;2.50;;;25.80;1.00;;;;;;2609585;54;20488;-61
2024/02/01 12:58:56;;;;;;;4.10;2.23;;;25.70;1.00;;;;;;2610722;54;20423;-61
2024/02/01 13:01:26;;;;;;;2.77;2.30;;;25.50;1.00;;;;;;2609544;54;20426;-61
2024/02/01 13:03:52;;;;;;;4.50;2.37;;;25.50;1.00;;;;;;2609603;54;20458;-61
2024/02/01 13:06:18;;;;;;;5.50;2.60;;;25.40;1.00;;;;;;2609100;54;20516;-59
2024/02/01 13:08:51;;;;;;;3.83;3.03;;;25.10;1.00;;;;;;2609362;54;20436;-59
2024/02/01 13:11:25;;;;;;;3.60;2.67;;;25.10;1.00;;;;;;2608943;54;20404;-59
2024/02/01 13:13:54;;;;;;;3.83;2.20;;;25.10;1.00;;;;;;2607823;39;20887;-59
2024/02/01 13:16:19;;;;;;;3.63;2.83;;;25.00;1.00;;;;;;2607490;39;20882;-58
2024/02/01 13:18:45;;;;;;;3.63;3.03;;;24.90;1.00;;;;;;2607889;54;20410;-59
2024/02/01 13:21:12;;;;;;;5.03;2.90;;;24.90;1.00;;;;;;2607760;47;20705;-60
2024/02/01 13:23:37;;;;;;;5.57;3.00;;;24.80;1.00;;;;;;2607809;54;20161;-59
2024/02/01 13:26:03;;;;;;;5.77;3.20;;;24.70;1.00;;;;;;2607629;54;20440;-63
2024/02/01 13:28:29;;;;;;;6.17;2.83;;;24.60;1.00;;;;;;2610483;54;20173;-62
2024/02/01 13:30:57;;;;;;;5.23;2.83;;;24.50;1.00;;;;;;2609489;54;20237;-61
2024/02/01 13:33:22;;;;;;;8.60;2.80;;;24.30;1.00;;;;;;2608866;39;20564;-61
2024/02/01 13:35:49;;;;;;;8.00;3.10;;;24.20;1.00;;;;;;2608186;54;21109;-58
2024/02/01 13:38:14;;;;;;;5.17;2.50;;;24.10;1.00;;;;;;2607628;54;20311;-58
2024/02/01 13:40:49;;;;;;;3.07;2.40;;;24.10;1.00;;;;;;2608185;54;20390;-58
2024/02/01 13:43:14;;;;;;;9.47;3.90;;;24.10;1.00;;;;;;2607938;54;20175;-59
2024/02/01 13:45:40;;;;;;;5.73;3.03;;;24.10;1.00;;;;;;2610977;54;20452;-59
2024/02/01 13:48:06;;;;;;;6.07;3.40;;;24.10;1.00;;;;;;2608628;54;20228;-59
2024/02/01 13:50:32;;;;;;;4.30;2.90;;;24.10;1.00;;;;;;2611166;54;20173;-59
2024/02/01 13:52:58;;;;;;;7.30;3.30;;;24.10;1.00;;;;;;2610926;54;20602;-58
2024/02/01 13:55:25;;;;;;;6.67;3.60;;;24.10;1.00;;;;;;2610948;54;20168;-58
2024/02/01 13:57:52;;;;;;;5.43;2.87;;;24.10;1.00;;;;;;2610798;47;20523;-58
2024/02/01 14:00:19;;;;;;;6.70;3.23;;;24.10;1.00;;;;;;2610928;54;20398;-58
2024/02/01 14:02:49;;;;;;;5.27;2.57;;;24.10;1.00;;;;;;2609589;47;20422;-58
2024/02/01 14:05:16;;;;;;;5.17;2.80;;;24.00;1.00;;;;;;2610534;54;20426;-58
2024/02/01 14:07:42;;;;;;;5.53;3.33;;;24.10;1.00;;;;;;2610899;47;20414;-59
2024/02/01 14:10:09;;;;;;;5.97;2.83;;;24.10;1.00;;;;;;2610835;54;20421;-58
2024/02/01 14:12:37;;;;;;;6.57;3.23;;;24.10;1.00;;;;;;2609782;54;20436;-59
2024/02/01 14:15:04;;;;;;;10.00;3.40;;;24.10;1.00;;;;;;2611617;39;20818;-63
2024/02/01 14:17:30;;;;;;;6.33;3.20;;;24.10;1.00;;;;;;2610064;54;20410;-64
2024/02/01 14:19:57;;;;;;;5.43;2.70;;;24.10;1.00;;;;;;2610038;51;20462;-63
2024/02/01 14:22:26;;;;;;;4.03;2.67;;;24.20;1.00;;;;;;2610710;54;20474;-63
2024/02/01 14:24:55;;;;;;;4.33;2.83;;;24.20;1.00;;;;;;2610046;54;20509;-63
2024/02/01 14:27:21;;;;;;;5.10;2.83;;;24.20;1.00;;;;;;2610284;54;20420;-63
2024/02/01 14:29:47;;;;;;;5.80;2.80;;;24.20;1.00;;;;;;2610320;39;20829;-63
2024/02/01 14:32:14;;;;;;;4.37;2.90;;;24.20;1.00;;;;;;2610144;54;20998;-64
2024/02/01 14:34:43;;;;;;;6.33;2.90;;;24.20;1.00;;;;;;2610220;54;20466;-63
2024/02/01 14:37:11;;;;;;;5.17;3.07;;;24.20;1.00;;;;;;2611106;54;20427;-61
2024/02/01 14:39:47;;;;;;;4.20;2.40;;;24.20;1.00;;;;;;2611691;54;20415;-64
2024/02/01 14:42:12;;;;;;;3.87;2.53;;;24.20;1.00;;;;;;2612245;39;20826;-63
2024/02/01 14:44:38;;;;;;;3.83;2.47;;;24.20;1.00;;;;;;2610126;54;20401;-62
2024/02/01 14:47:07;;;;;;;6.30;3.00;;;24.20;1.00;;;;;;2608597;46;20227;-61
2024/02/01 14:49:34;;;;;;;3.00;2.30;;;24.10;1.00;;;;;;2610569;54;20158;-61
2024/02/01 14:52:00;;;;;;;2.40;1.77;;;24.10;1.00;;;;;;2611850;39;20764;-62
2024/02/01 14:54:26;;;;;;;6.23;2.37;;;24.10;1.00;;;;;;2610504;54;20464;-60
2024/02/01 14:56:51;;;;;;;5.93;2.70;;;24.10;1.00;;;;;;2611110;54;20440;-60
2024/02/01 14:59:18;;;;;;;3.40;2.60;;;24.00;1.00;;;;;;2609035;54;20165;-61
2024/02/01 15:01:45;;;;;;;3.93;2.50;;;24.00;1.00;;;;;;2608607;54;20169;-61
2024/02/01 15:04:11;;;;;;;2.97;2.40;;;24.00;1.00;;;;;;2609754;54;20398;-60
2024/02/01 15:06:37;;;;;;;3.87;2.47;;;24.00;1.00;;;;;;2611073;39;20772;-61
2024/02/01 15:09:03;;;;;;;4.13;2.73;;;23.90;1.00;;;;;;2608835;54;20441;-61
2024/02/01 15:11:31;;;;;;;4.40;2.70;;;23.90;1.00;;;;;;2610718;54;20190;-61
2024/02/01 15:13:58;;;;;;;5.93;2.87;;;23.80;1.00;;;;;;2609175;54;20563;-61
2024/02/01 15:16:32;;;;;;;6.23;3.17;;;23.80;1.00;;;;;;2609133;54;20419;-61
2024/02/01 15:19:01;;;;;;;3.53;2.33;;;23.80;1.00;;;;;;2609553;47;20459;-61
2024/02/01 15:21:30;;;;;;;5.47;2.90;;;23.70;1.00;;;;;;2609756;54;20398;-60
2024/02/01 15:23:57;;;;;;;4.00;2.40;;;23.70;1.00;;;;;;2609719;54;20518;-62
2024/02/01 15:26:24;;;;;;;2.83;2.37;;;23.60;1.00;;;;;;2610409;39;20838;-59
2024/02/01 15:28:49;;;;;;;6.23;3.03;;;23.60;1.00;;;;;;2609591;54;20447;-59
2024/02/01 15:31:19;;;;;;;4.80;2.90;;;23.60;1.00;;;;;;2610296;39;20878;-58
2024/02/01 15:33:45;;;;;;;4.63;2.80;;;23.60;1.00;;;;;;2609503;54;20171;-59
2024/02/01 15:36:11;;;;;;;5.80;2.63;;;23.60;1.00;;;;;;2608745;54;20422;-59
2024/02/01 15:38:38;;;;;;;4.43;2.60;;;23.60;1.00;;;;;;2609836;54;20386;-58
2024/02/01 15:41:06;;;;;;;3.13;2.10;;;23.50;1.00;;;;;;2608647;47;20426;-58
2024/02/01 15:43:32;;;;;;;4.97;2.30;;;23.50;1.00;;;;;;2609170;54;21082;-65
2024/02/01 15:45:58;;;;;;;3.70;2.23;;;23.50;1.00;;;;;;2609921;54;20400;-62
2024/02/01 15:48:24;;;;;;;4.07;2.80;;;23.50;1.00;;;;;;2609814;54;20181;-63
2024/02/01 15:50:50;;;;;;;6.27;2.70;;;23.50;1.00;;;;;;2610001;54;20440;-63
2024/02/01 15:53:18;;;;;;;3.50;2.67;;;23.50;1.00;;;;;;2609013;54;21291;-63
2024/02/01 15:55:45;;;;;;;4.97;2.50;;;23.40;1.00;;;;;;2610103;54;20163;-53
2024/02/01 15:58:14;;;;;;;3.77;2.50;;;23.40;1.00;;;;;;2609889;47;20420;-52
2024/02/01 16:00:40;;;;;;;4.60;2.77;;;23.40;1.00;;;;;;2608613;54;20490;-54
2024/02/01 16:03:06;;;;;;;4.77;2.70;;;23.40;1.00;;;;;;2609568;54;20430;-51
2024/02/01 16:05:51;;;;;;;4.23;2.67;;;23.40;1.00;;;;;;2609159;54;20418;-52
2024/02/01 16:08:17;;;;;;;4.07;2.33;;;23.40;1.00;;;;;;2608963;47;20414;-49
2024/02/01 16:10:47;;;;;;;7.20;3.13;;;23.40;1.00;;;;;;2609112;54;20433;-50
2024/02/01 16:13:14;;;;;;;3.57;2.87;;;23.40;1.00;;;;;;2609717;54;20419;-50
2024/02/01 16:15:39;;;;;;;4.20;2.70;;;23.40;1.00;;;;;;2610277;54;21267;-51
2024/02/01 16:18:10;;;;;;;2.97;2.67;;;23.30;1.00;;;;;;2609373;54;20439;-50
2024/02/01 16:20:51;;;;;;;4.23;2.53;;;23.30;1.00;;;;;;2608883;49;20164;-52
2024/02/01 16:23:23;;;;;;;4.00;2.30;;;23.30;1.00;;;;;;2609739;54;20465;-52
2024/02/01 16:25:50;;;;;;;3.30;2.33;;;23.30;1.00;;;;;;2610145;54;20397;-52
2024/02/01 16:28:33;;;;;;;3.67;2.57;;;23.30;1.00;;;;;;2609683;54;20448;-53
2024/02/01 16:31:04;;;;;;;4.10;2.70;;;23.30;1.00;;;;;;2608372;54;20509;-52
2024/02/01 16:33:35;;;;;;;3.67;2.73;;;23.30;1.00;;;;;;2609918;54;20436;-53
2024/02/01 16:36:04;;;;;;;2.40;1.90;;;23.30;1.00;;;;;;2609533;54;20461;-61
2024/02/01 16:38:43;;;;;;;3.30;2.30;;;23.30;1.00;;;;;;2609840;47;20446;-59
2024/02/01 16:41:27;;;;;;;6.87;2.83;;;23.30;1.00;;;;;;2609542;54;20425;-60
2024/02/01 16:43:53;;;;;;;5.43;2.13;;;23.10;1.00;;;;;;2609208;47;20429;-60
2024/02/01 16:46:34;;;;;;;6.50;2.77;;;23.00;1.00;;;;;;2609343;54;20459;-60
2024/02/01 16:49:00;;;;;;;3.23;2.37;;;22.90;1.00;;;;;;2609245;54;20437;-61
2024/02/01 16:51:25;;;;;;;3.33;2.37;;;22.80;1.00;;;;;;2609174;39;20788;-60
2024/02/01 16:53:52;;;;;;;3.57;2.07;;;22.70;1.00;;;;;;2610414;54;20175;-61
2024/02/01 16:56:19;;;;;;;3.43;2.30;;;22.80;1.00;;;;;;2609293;54;20168;-61
2024/02/01 16:58:53;;;;;;;3.50;2.27;;;23.00;1.00;;;;;;2610592;54;20495;-61
2024/02/01 17:01:41;;;;;;;4.07;2.43;;;23.10;1.00;;;;;;2611198;47;20484;-59
2024/02/01 17:04:20;;;;;;;4.70;2.53;;;23.40;1.00;;;;;;2612955;54;20430;-59
2024/02/01 17:06:48;;;;;;;6.50;2.67;;;23.60;1.00;;;;;;2612578;54;20532;-58
2024/02/01 17:09:16;;;;;;;5.23;2.60;;;23.70;1.00;;;;;;2614232;47;20931;-57
2024/02/01 17:11:43;;;;;;;3.27;1.87;;;23.70;1.00;;;;;;2613537;39;20476;-57
2024/02/01 17:14:33;;;;;;;4.13;2.50;;;23.80;1.00;;;;;;2612852;54;20432;-58
2024/02/01 17:17:18;;;;;;;4.27;1.93;;;23.70;1.00;;;;;;2613238;54;20971;-58
2024/02/01 17:19:45;;;;;;;4.70;2.37;;;23.70;1.00;;;;;;2612971;54;20409;-56
2024/02/01 17:22:23;;;;;;;5.47;2.70;;;24.00;1.00;;;;;;2615491;47;20443;-57
2024/02/01 17:24:50;;;;;;;4.73;2.70;;;23.90;1.00;;;;;;2612180;54;21245;-60
2024/02/01 17:27:22;;;;;;;5.10;2.70;;;23.80;1.00;;;;;;2614049;54;20470;-57
2024/02/01 17:29:56;;;;;;;5.70;2.40;;;24.00;1.00;;;;;;2611094;39;20834;-58
2024/02/01 17:32:25;;;;;;;7.43;3.00;;;24.10;1.00;;;;;;2611614;47;20435;-55
2024/02/01 17:34:51;;;;;;;4.40;2.90;;;24.20;1.00;;;;;;2613422;54;20985;-56
2024/02/01 17:37:26;;;;;;;5.40;2.50;;;24.20;1.00;;;;;;2613182;47;20427;-59
2024/02/01 17:39:52;;;;;;;3.97;2.80;;;24.30;1.00;;;;;;2612968;54;20445;-55
2024/02/01 17:42:33;;;;;;;3.43;2.23;;;24.40;1.00;;;;;;2611848;54;20439;-57
2024/02/01 17:44:59;;;;;;;5.63;2.97;;;24.40;1.00;;;;;;2611135;54;20406;-57
2024/02/01 17:47:24;;;;;;;6.20;2.93;;;24.50;1.00;;;;;;2612329;54;20527;-58
2024/02/01 17:49:53;;;;;;;5.20;2.67;;;24.50;1.00;;;;;;2612503;54;20258;-58
2024/02/01 17:52:41;;;;;;;6.20;3.30;;;24.60;1.00;;;;;;2611577;54;20404;-58
2024/02/01 17:55:23;;;;;;;4.83;3.07;;;24.60;1.00;;;;;;2612526;54;20415;-57
2024/02/01 17:57:54;;;;;;;9.53;3.13;;;24.50;1.00;;;;;;2612375;39;21508;-59
2024/02/01 18:00:21;;;;;;;5.03;3.30;;;24.50;1.00;;;;;;2612759;54;20485;-59
2024/02/01 18:02:48;;;;;;;4.77;4.17;;;24.50;1.00;;;;;;2613001;54;20426;-59
2024/02/01 18:05:15;;;;;;;4.83;2.60;;;24.50;1.00;;;;;;2612959;54;20400;-62
2024/02/01 18:07:41;;;;;;;6.17;3.00;;;24.40;1.00;;;;;;2610763;54;20425;-61
2024/02/01 18:10:09;;;;;;;4.90;2.33;;;24.50;1.00;;;;;;2613191;54;20443;-62
2024/02/01 18:12:39;;;;;;;3.90;2.90;;;24.80;1.00;;;;;;2613416;47;20506;-60
2024/02/01 18:15:20;;;;;;;4.30;2.60;;;24.90;1.00;;;;;;2614172;54;20418;-53
2024/02/01 18:17:46;;;;;;;4.40;2.67;;;24.60;1.00;;;;;;2611589;39;20826;-60
2024/02/01 18:20:22;;;;;;;5.57;2.80;;;24.70;1.00;;;;;;2612121;54;20430;-60
2024/02/01 18:22:53;;;;;;;5.23;2.30;;;24.80;1.00;;;;;;2611445;39;20837;-60
2024/02/01 18:25:31;;;;;;;6.00;3.83;;;24.60;1.00;;;;;;2613455;54;20417;-59
2024/02/01 18:27:57;;;;;;;4.37;2.73;;;24.30;1.00;;;;;;2612672;54;21329;-59
2024/02/01 18:30:26;;;;;;;5.33;2.87;;;24.30;1.00;;;;;;2612632;54;20493;-60
2024/02/01 18:32:52;;;;;;;8.23;2.30;;;24.20;1.00;;;;;;2613794;54;20735;-61
2024/02/01 18:35:34;;;;;;;4.23;2.70;;;24.30;1.00;;;;;;2610425;54;21096;-58
2024/02/01 18:38:07;;;;;;;4.80;3.03;;;24.30;1.00;;;;;;2611816;50;20454;-59
2024/02/01 18:40:35;;;;;;;4.43;2.93;;;24.40;1.00;;;;;;2613023;46;20466;-59
2024/02/01 18:43:04;;;;;;;4.60;2.67;;;24.40;1.00;;;;;;2612739;54;20399;-59
2024/02/01 18:45:42;;;;;;;5.70;3.03;;;24.50;1.00;;;;;;2614469;54;20970;-57
2024/02/01 18:48:22;;;;;;;5.33;2.87;;;24.40;1.00;;;;;;2613569;47;20455;-58
2024/02/01 18:50:48;;;;;;;3.43;2.37;;;24.40;1.00;;;;;;2614214;46;20434;-58
2024/02/01 18:53:46;;;;;;;3.80;2.80;;;24.40;1.00;;;;;;2613385;47;20423;-57
2024/02/01 18:56:30;;;;;;;4.87;2.83;;;24.40;1.00;;;;;;2613349;54;21107;-57
2024/02/01 18:58:56;;;;;;;3.90;2.30;;;24.30;1.00;;;;;;2614203;39;20876;-54
2024/02/01 19:01:31;;;;;;;3.30;2.57;;;24.30;1.00;;;;;;2612790;54;20460;-56
2024/02/01 19:04:05;;;;;;;6.07;3.30;;;24.30;1.00;;;;;;2614227;47;20424;-56
2024/02/01 19:06:32;;;;;;;6.97;5.97;;;24.30;1.00;;;;;;2613833;39;20897;-58
2024/02/01 19:09:03;;;;;;;7.20;3.70;;;24.10;1.00;;;;;;2613029;54;20442;-57
2024/02/01 19:11:34;;;;;;;6.87;4.17;;;24.10;1.00;;;;;;2612428;51;20410;-59
2024/02/01 19:14:04;;;;;;;7.27;4.60;;;24.20;1.00;;;;;;2611552;54;20992;-58
2024/02/01 19:16:30;;;;;;;5.03;4.27;;;24.30;1.00;;;;;;2612993;51;20498;-69
2024/02/01 19:18:59;;;;;;;5.60;3.77;;;24.30;1.00;;;;;;2612205;54;20971;-63
2024/02/01 19:21:30;;;;;;;4.63;4.10;;;24.00;1.00;;;;;;2613530;54;20706;-64
2024/02/01 19:23:58;;;;;;;6.73;4.70;;;23.80;1.00;;;;;;2612837;47;20435;-63
2024/02/01 19:26:24;;;;;;;10.73;5.10;;;23.60;1.00;;;;;;2611184;54;20453;-62
2024/02/01 19:28:56;;;;;;;19.90;18.70;;;23.50;1.00;;;;;;2612064;39;20816;-62
2024/02/01 19:31:22;;;;;;;19.10;18.20;;;23.60;1.00;;;;;;2613496;47;20432;-62
2024/02/01 19:33:56;;;;;;;5.90;4.67;;;23.80;1.00;;;;;;2609082;54;20399;-66
2024/02/01 19:36:28;;;;;;;18.77;17.70;;;23.80;1.00;;;;;;2612981;54;20437;-64
2024/02/01 19:38:56;;;;;;;4.93;3.50;;;24.20;1.00;;;;;;2613338;54;20413;-62
2024/02/01 19:41:21;;;;;;;21.73;20.37;;;24.50;1.00;;;;;;2613388;54;20971;-63
2024/02/01 19:43:47;;;;;;;6.70;3.70;;;24.90;1.00;;;;;;2612737;54;20427;-64
2024/02/01 19:46:13;;;;;;;7.23;3.80;;;25.20;1.00;;;;;;2612877;47;20169;-60
2024/02/01 19:48:38;;;;;;;4.37;3.90;;;25.10;1.00;;;;;;2613438;54;20161;-63
2024/02/01 19:51:04;;;;;;;6.67;4.30;;;25.20;1.00;;;;;;2612230;47;20174;-62
2024/02/01 19:53:30;;;;;;;7.13;4.00;;;25.40;1.00;;;;;;2613093;39;20574;-64
2024/02/01 19:55:55;;;;;;;8.10;4.70;;;25.70;1.00;;;;;;2612649;54;20153;-60
2024/02/01 19:58:21;;;;;;;7.83;3.97;;;25.90;1.00;;;;;;2612588;47;20201;-66
2024/02/01 20:00:47;;;;;;;7.40;4.20;;;26.20;1.00;;;;;;2611800;54;20199;-64
2024/02/01 20:03:14;;;;;;;6.83;4.80;;;26.40;1.00;;;;;;2608936;47;20218;-63
2024/02/01 20:05:40;;;;;;;5.00;4.07;;;26.60;1.00;;;;;;2609412;47;20194;-59
2024/02/01 20:08:06;;;;;;;6.60;4.47;;;26.80;1.00;;;;;;2608838;54;20957;-60
2024/02/01 20:10:32;;;;;;;7.90;4.47;;;26.90;1.00;;;;;;2609821;54;20433;-60
2024/02/01 20:12:57;;;;;;;9.37;4.37;;;27.10;1.00;;;;;;2612324;54;20176;-60
2024/02/01 20:15:23;;;;;;;7.33;4.60;;;27.20;1.00;;;;;;2612854;54;20151;-60
2024/02/01 20:17:52;;;;;;;5.47;4.37;;;27.40;1.00;;;;;;2612967;54;20241;-58
2024/02/01 20:20:21;;;;;;;20.60;19.43;;;27.50;1.00;;;;;;2613695;39;20591;-59
2024/02/01 20:22:47;;;;;;;21.90;20.23;;;27.40;1.00;;;;;;2611195;54;20439;-57
2024/02/01 20:25:22;;;;;;;22.23;20.93;;;27.50;1.00;;;;;;2609584;54;20403;-63
2024/02/01 20:27:54;;;;;;;21.63;20.47;;;27.50;1.00;;;;;;2612160;54;20840;-63